Clever, Missouri
Current Conditions -  °F | °C
As of 3:52 PM on Monday 26 Jan 2015 (Local Time) from KSGF Reporting Station
Clear Clear  
Wind Chill: 57°   Ceiling: Unl
Heat Index: 57°   Visibility: 10mi
Dew Point: 33°   Wind: 18mph
Humidity: 40%   Direction: 280°W
Pressure: 29.92"   Gusts: 24mph
Location:  37.03°N, 93.47°W
Report Text: KSGF 262152Z 28016G21KT 10SM CLR 14/01 A2992 RMK AO2 SLP136 T01390006
Loading
Personal Weather Stations






























Interactive Weather Map New forecast layout! Learn more

10-Day Weather Forecast

Advertisements
Track Severe Weather on mobile